^^
Datos históricos de la estación: Murcia-Puente Tocinos
Diario Informe para Febrero 17, 2019 Unidades:  Métrico    Inglés   Ambas
Diario Semanal Mensual Anual Configurable
  Máximo: Mínimo: Media:
Temperatura: 15.9 °C 6.9 °C 10.5 °C
Punto de rocio: 9.6 °C 1.9 °C 5.5 °C
Humedad: 90% 56% 72%
Velocidad viento: 12.2km/h 0.0km/h 7.1km/h
Racha viento: 24.1km/h - -
Viento- - SSE
Presión: 1026.2 hPa 1021.4 hPa -
Precipitación: 0.0 mm    
Historical Graphs
 
 
Tabla de datos para Febrero 17, 2019
Hora Temperatura Punto de rocio Presión Viento Velocidad viento Racha viento Humedad Intensidad lluvia(por hora) Nubes
00:00 9.6 °C 5.9 °C 1026.2 hPa WNW 3.2 km/h 4.8 km/h 78% 0.0 mm CLR
00:05 9.6 °C 5.9 °C 1026.0 hPa WNW 2.9 km/h   78% 0.0 mm CLR
00:10 9.5 °C 5.7 °C 1026.0 hPa Calm     77% 0.0 mm CLR
00:15 9.4 °C 5.6 °C 1026.0 hPa Calm     77% 0.0 mm CLR
00:20 9.3 °C 5.4 °C 1026.0 hPa Calm     77% 0.0 mm CLR
00:25 9.3 °C 5.4 °C 1026.0 hPa Calm   7.4 km/h 77% 0.0 mm CLR
00:30 8.9 °C 5.3 °C 1026.0 hPa ESE 3.2 km/h 5.6 km/h 78% 0.0 mm CLR
00:35 8.8 °C 5.3 °C 1026.0 hPa SSE 3.2 km/h 9.3 km/h 79% 0.0 mm CLR
00:40 8.8 °C 5.3 °C 1026.0 hPa SE 5.8 km/h 7.4 km/h 79% 0.0 mm CLR
00:45 8.8 °C 5.2 °C 1026.0 hPa SSW 5.8 km/h 8.4 km/h 78% 0.0 mm CLR
00:50 8.8 °C 5.2 °C 1026.0 hPa SW 5.8 km/h 8.7 km/h 78% 0.0 mm CLR
00:55 8.9 °C 5.3 °C 1026.0 hPa WSW 5.8 km/h 7.4 km/h 78% 0.0 mm CLR
01:00 8.9 °C 5.3 °C 1026.0 hPa SW 4.8 km/h 8.0 km/h 78% 0.0 mm CLR
01:04 8.9 °C 5.1 °C 1026.0 hPa South 5.0 km/h 5.8 km/h 77% 0.0 mm CLR
01:09 9.1 °C 5.1 °C 1026.0 hPa SSW 4.7 km/h 7.4 km/h 76% 0.0 mm CLR
01:14 9.1 °C 5.1 °C 1026.0 hPa SSW 4.7 km/h 7.4 km/h 76% 0.0 mm CLR
01:19 9.0 °C 5.0 °C 1025.9 hPa SSW 5.0 km/h 7.4 km/h 76% 0.0 mm CLR
01:24 8.9 °C 4.9 °C 1025.9 hPa South 5.0 km/h 7.4 km/h 76% 0.0 mm CLR
01:29 8.9 °C 4.9 °C 1025.9 hPa South 5.8 km/h 9.3 km/h 76% 0.0 mm CLR
01:34 8.8 °C 4.6 °C 1025.9 hPa South 5.8 km/h 11.1 km/h 75% 0.0 mm CLR
01:39 8.7 °C 4.5 °C 1025.9 hPa South 6.4 km/h 9.3 km/h 75% 0.0 mm CLR
01:44 8.7 °C 4.5 °C 1025.9 hPa South 6.4 km/h 9.3 km/h 75% 0.0 mm CLR
01:49 8.7 °C 4.5 °C 1025.9 hPa SSE 5.8 km/h 9.3 km/h 75% 0.0 mm CLR
01:54 8.6 °C 4.4 °C 1025.9 hPa SW 5.8 km/h 11.1 km/h 75% 0.0 mm CLR
01:59 8.6 °C 4.2 °C 1025.9 hPa SE 6.4 km/h 9.3 km/h 74% 0.0 mm CLR
02:04 8.6 °C 4.2 °C 1025.7 hPa SSW 6.4 km/h 13.0 km/h 74% 0.0 mm CLR
02:09 8.4 °C 4.1 °C 1025.7 hPa SSW 6.4 km/h 11.1 km/h 74% 0.0 mm CLR
02:14 8.3 °C 3.9 °C 1025.7 hPa SSW 6.4 km/h 11.1 km/h 74% 0.0 mm CLR
02:19 8.2 °C 3.8 °C 1025.7 hPa SSW 6.9 km/h 11.1 km/h 74% 0.0 mm CLR
02:24 8.2 °C 4.1 °C 1025.7 hPa SSW 6.9 km/h 13.0 km/h 75% 0.0 mm CLR
02:29 8.1 °C 3.9 °C 1025.7 hPa South 8.4 km/h 7.6 km/h 75% 0.0 mm CLR
02:34 8.1 °C 3.9 °C 1025.7 hPa SSW 8.4 km/h 11.1 km/h 75% 0.0 mm CLR
02:39 8.0 °C 3.8 °C 1025.7 hPa South 7.6 km/h 11.1 km/h 75% 0.0 mm CLR
02:44 7.9 °C 3.7 °C 1025.7 hPa South 7.6 km/h 9.3 km/h 75% 0.0 mm CLR
02:49 7.9 °C 3.7 °C 1025.6 hPa SSW 6.9 km/h 6.9 km/h 75% 0.0 mm CLR
02:54 7.9 °C 3.7 °C 1025.6 hPa SSW 6.9 km/h 7.6 km/h 75% 0.0 mm CLR
02:59 7.9 °C 3.7 °C 1025.6 hPa SSW 5.8 km/h 10.3 km/h 75% 0.0 mm CLR
03:04 7.8 °C 3.4 °C 1025.5 hPa SSW 5.8 km/h 9.3 km/h 74% 0.0 mm CLR
03:09 7.8 °C 3.4 °C 1025.5 hPa SSW 6.9 km/h 10.0 km/h 74% 0.0 mm CLR
03:14 7.7 °C 3.3 °C 1025.5 hPa SW 6.9 km/h 5.6 km/h 74% 0.0 mm CLR
03:19 7.7 °C 3.3 °C 1025.4 hPa SSW 5.8 km/h 9.3 km/h 74% 0.0 mm CLR
03:24 7.7 °C 3.3 °C 1025.4 hPa SW 5.8 km/h 9.3 km/h 74% 0.0 mm CLR
03:29 7.7 °C 3.3 °C 1025.4 hPa SSW 6.4 km/h 9.3 km/h 74% 0.0 mm CLR
03:34 7.7 °C 3.3 °C 1025.3 hPa WSW 6.4 km/h 9.3 km/h 74% 0.0 mm CLR
03:39 7.7 °C 3.2 °C 1025.3 hPa WSW 6.4 km/h 9.3 km/h 73% 0.0 mm CLR
03:44 7.8 °C 3.3 °C 1025.3 hPa SW 6.4 km/h 13.0 km/h 73% 0.0 mm CLR
03:49 7.8 °C 3.1 °C 1025.3 hPa SW 8.4 km/h 10.0 km/h 72% 0.0 mm CLR
03:54 7.8 °C 3.1 °C 1025.3 hPa SW 8.4 km/h 11.1 km/h 72% 0.0 mm CLR
03:59 7.8 °C 3.1 °C 1025.3 hPa South 7.6 km/h 10.3 km/h 72% 0.0 mm CLR
04:04 7.8 °C 2.9 °C 1025.2 hPa SW 7.6 km/h 11.1 km/h 71% 0.0 mm CLR
04:09 7.8 °C 2.9 °C 1025.2 hPa SSW 6.9 km/h 13.0 km/h 71% 0.0 mm CLR
04:14 7.8 °C 2.7 °C 1025.2 hPa SSW 6.9 km/h 11.1 km/h 70% 0.0 mm CLR
04:19 7.7 °C 2.6 °C 1025.0 hPa SSW 8.7 km/h 11.1 km/h 70% 0.0 mm CLR
04:24 7.7 °C 2.6 °C 1025.0 hPa SW 8.7 km/h 9.5 km/h 70% 0.0 mm CLR
04:29 7.7 °C 2.6 °C 1025.0 hPa West 7.6 km/h 9.3 km/h 70% 0.0 mm CLR
04:34 7.6 °C 2.5 °C 1024.9 hPa SSW 7.6 km/h 11.1 km/h 70% 0.0 mm CLR
04:39 7.6 °C 2.5 °C 1024.9 hPa SSW 8.4 km/h 11.9 km/h 70% 0.0 mm CLR
04:44 7.6 °C 2.5 °C 1024.9 hPa SW 8.4 km/h 13.0 km/h 70% 0.0 mm CLR
04:49 7.6 °C 2.5 °C 1024.9 hPa South 9.5 km/h 13.0 km/h 70% 0.0 mm CLR
04:54 7.6 °C 2.5 °C 1024.9 hPa SW 9.5 km/h 13.0 km/h 70% 0.0 mm CLR
04:59 7.6 °C 2.5 °C 1024.9 hPa SSW 9.5 km/h 13.0 km/h 70% 0.0 mm CLR
05:04 7.6 °C 2.5 °C 1024.8 hPa SSW 9.5 km/h 11.1 km/h 70% 0.0 mm CLR
05:09 7.6 °C 2.3 °C 1024.8 hPa SW 9.5 km/h 9.5 km/h 69% 0.0 mm CLR
05:14 7.5 °C 2.2 °C 1024.8 hPa SSW 9.5 km/h 8.4 km/h 69% 0.0 mm CLR
05:19 7.4 °C 2.3 °C 1024.8 hPa SW 6.9 km/h 9.3 km/h 70% 0.0 mm CLR
05:24 7.4 °C 2.3 °C 1024.8 hPa SSW 6.9 km/h 9.3 km/h 70% 0.0 mm CLR
05:29 7.3 °C 2.2 °C 1024.8 hPa SW 6.4 km/h 9.3 km/h 70% 0.0 mm CLR
05:34 7.3 °C 2.2 °C 1024.8 hPa SSW 6.4 km/h 13.0 km/h 70% 0.0 mm CLR
05:39 7.3 °C 2.0 °C 1024.8 hPa SSW 7.6 km/h 12.2 km/h 69% 0.0 mm CLR
05:44 7.3 °C 2.2 °C 1024.8 hPa SW 7.6 km/h 13.0 km/h 70% 0.0 mm CLR
05:49 7.3 °C 2.2 °C 1024.8 hPa SSW 9.5 km/h 11.1 km/h 70% 0.0 mm CLR
05:54 7.2 °C 2.1 °C 1024.8 hPa SSW 9.5 km/h 13.0 km/h 70% 0.0 mm CLR
05:59 7.2 °C 2.1 °C 1024.8 hPa SSW 8.7 km/h 11.1 km/h 70% 0.0 mm CLR
06:04 7.2 °C 2.1 °C 1024.8 hPa SSW 8.7 km/h 13.0 km/h 70% 0.0 mm CLR
06:09 7.1 °C 2.0 °C 1024.8 hPa SW 8.7 km/h 13.0 km/h 70% 0.0 mm CLR
06:14 7.1 °C 2.2 °C 1024.8 hPa SSW 8.7 km/h 14.8 km/h 71% 0.0 mm CLR
06:19 7.0 °C 2.1 °C 1024.9 hPa South 9.5 km/h 14.8 km/h 71% 0.0 mm CLR
06:24 7.0 °C 2.1 °C 1024.9 hPa SSW 9.5 km/h 10.3 km/h 71% 0.0 mm CLR
06:29 7.0 °C 2.1 °C 1024.9 hPa South 8.7 km/h 9.3 km/h 71% 0.0 mm CLR
06:34 6.9 °C 2.0 °C 1024.9 hPa SSW 8.7 km/h 13.7 km/h 71% 0.0 mm CLR
06:39 6.9 °C 2.2 °C 1024.9 hPa SSW 8.4 km/h 11.1 km/h 72% 0.0 mm CLR
06:44 6.9 °C 2.2 °C 1024.9 hPa SSW 8.4 km/h 7.4 km/h 72% 0.0 mm CLR
06:49 6.9 °C 2.2 °C 1024.9 hPa SW 6.9 km/h 11.9 km/h 72% 0.0 mm CLR
06:54 7.0 °C 2.3 °C 1024.9 hPa SSW 6.9 km/h 13.0 km/h 72% 0.0 mm CLR
06:59 7.1 °C 2.4 °C 1024.9 hPa SW 8.4 km/h 11.1 km/h 72% 0.0 mm CLR
07:04 7.1 °C 2.2 °C 1025.0 hPa South 8.4 km/h 13.0 km/h 71% 0.0 mm CLR
07:09 7.2 °C 2.3 °C 1025.0 hPa SW 8.4 km/h 16.7 km/h 71% 0.0 mm CLR
07:14 7.3 °C 2.4 °C 1025.0 hPa SW 8.4 km/h 14.8 km/h 71% 0.0 mm CLR
07:19 7.3 °C 2.4 °C 1025.0 hPa WSW 10.0 km/h 9.3 km/h 71% 0.0 mm CLR
07:24 7.3 °C 2.4 °C 1025.0 hPa WSW 10.0 km/h 9.3 km/h 71% 0.0 mm CLR
07:29 7.3 °C 2.4 °C 1025.0 hPa WSW 6.4 km/h 7.4 km/h 71% 0.0 mm CLR
07:34 7.4 °C 2.5 °C 1025.0 hPa WSW 6.4 km/h 9.3 km/h 71% 0.0 mm CLR
07:39 7.4 °C 2.5 °C 1025.0 hPa WSW 5.8 km/h 7.4 km/h 71% 0.0 mm CLR
07:44 7.4 °C 2.3 °C 1025.0 hPa SW 5.8 km/h 9.3 km/h 70% 0.0 mm CLR
07:49 7.4 °C 2.3 °C 1025.0 hPa West 5.0 km/h 11.1 km/h 70% 0.0 mm CLR
07:54 7.4 °C 2.3 °C 1025.0 hPa SW 5.0 km/h 11.1 km/h 70% 0.0 mm CLR
07:59 7.4 °C 2.3 °C 1025.0 hPa SW 6.9 km/h 7.4 km/h 70% 0.0 mm CLR
08:04 7.5 °C 2.4 °C 1025.2 hPa SSW 6.9 km/h 9.5 km/h 70% 0.0 mm CLR
08:09 7.5 °C 2.4 °C 1025.2 hPa WSW 5.8 km/h 9.3 km/h 70% 0.0 mm CLR
08:14 7.5 °C 2.4 °C 1025.2 hPa West 5.8 km/h 11.1 km/h 70% 0.0 mm CLR
08:19 7.6 °C 2.5 °C 1025.1 hPa WSW 6.9 km/h 13.0 km/h 70% 0.0 mm CLR
08:24 7.5 °C 2.2 °C 1025.1 hPa WSW 6.9 km/h 14.8 km/h 69% 0.0 mm CLR
08:29 7.4 °C 2.1 °C 1025.1 hPa WSW 9.5 km/h 11.1 km/h 69% 0.0 mm CLR
08:34 7.5 °C 2.2 °C 1025.3 hPa WSW 9.5 km/h 13.0 km/h 69% 0.0 mm CLR
08:39 7.6 °C 2.3 °C 1025.3 hPa SW 9.5 km/h 11.1 km/h 69% 0.0 mm CLR
08:44 7.7 °C 2.4 °C 1025.3 hPa WSW 9.5 km/h 11.1 km/h 69% 0.0 mm CLR
08:49 7.8 °C 2.3 °C 1025.5 hPa WSW 6.9 km/h 14.8 km/h 68% 0.0 mm CLR
08:54 7.8 °C 2.3 °C 1025.5 hPa WSW 6.9 km/h 11.1 km/h 68% 0.0 mm CLR
08:59 7.8 °C 2.3 °C 1025.5 hPa West 8.4 km/h 14.8 km/h 68% 0.0 mm CLR
09:04 7.8 °C 2.3 °C 1025.6 hPa WSW 8.4 km/h 14.8 km/h 68% 0.0 mm CLR
09:09 7.8 °C 2.3 °C 1025.6 hPa SW 8.7 km/h 9.3 km/h 68% 0.0 mm CLR
09:14 7.8 °C 2.3 °C 1025.6 hPa SW 8.7 km/h 14.8 km/h 68% 0.0 mm CLR
09:19 7.8 °C 2.3 °C 1025.8 hPa WSW 8.4 km/h 14.8 km/h 68% 0.0 mm CLR
09:24 7.8 °C 2.3 °C 1025.8 hPa WSW 8.4 km/h 14.8 km/h 68% 0.0 mm CLR
09:29 7.7 °C 1.9 °C 1025.8 hPa West 9.5 km/h 20.4 km/h 67% 0.0 mm CLR
09:34 7.7 °C 2.2 °C 1025.7 hPa SSW 9.5 km/h 13.0 km/h 68% 0.0 mm CLR
09:39 7.7 °C 2.2 °C 1025.7 hPa WSW 9.5 km/h 13.0 km/h 68% 0.0 mm CLR
09:44 7.8 °C 2.1 °C 1025.7 hPa WSW 9.5 km/h 11.1 km/h 67% 0.0 mm CLR
09:49 7.9 °C 2.2 °C 1026.0 hPa SSW 7.6 km/h 10.3 km/h 67% 0.0 mm CLR
09:54 7.9 °C 2.2 °C 1026.0 hPa WSW 7.6 km/h 7.4 km/h 67% 0.0 mm CLR
09:59 8.1 °C 2.3 °C 1026.0 hPa WSW 5.8 km/h 5.6 km/h 67% 0.0 mm CLR
10:04 8.2 °C 2.2 °C 1025.8 hPa West 5.8 km/h 7.4 km/h 66% 0.0 mm CLR
10:09 8.2 °C 2.2 °C 1025.8 hPa WNW 5.0 km/h 9.3 km/h 66% 0.0 mm CLR
10:14 8.2 °C 2.2 °C 1025.8 hPa West 5.0 km/h 8.4 km/h 66% 0.0 mm CLR
10:19 8.2 °C 2.0 °C 1025.7 hPa WSW 5.8 km/h 7.4 km/h 65% 0.0 mm CLR
10:24 8.2 °C 2.0 °C 1025.7 hPa West 5.8 km/h 14.8 km/h 65% 0.0 mm CLR
10:29 8.3 °C 2.1 °C 1025.7 hPa West 6.9 km/h 9.3 km/h 65% 0.0 mm CLR
10:34 8.3 °C 2.1 °C 1025.7 hPa SW 6.9 km/h 7.4 km/h 65% 0.0 mm CLR
10:39 8.5 °C 2.1 °C 1025.7 hPa SW 5.0 km/h 14.8 km/h 64% 0.0 mm CLR
10:44 8.7 °C 2.3 °C 1025.7 hPa SSW 5.0 km/h 11.1 km/h 64% 0.0 mm CLR
10:49 8.7 °C 2.3 °C 1025.7 hPa SSW 7.6 km/h 11.1 km/h 64% 0.0 mm CLR
10:54 8.8 °C 2.3 °C 1025.7 hPa SSW 7.6 km/h 7.4 km/h 64% 0.0 mm CLR
10:59 8.9 °C 2.2 °C 1025.7 hPa WSW 6.4 km/h 13.0 km/h 63% 0.0 mm CLR
11:04 9.0 °C 2.1 °C 1025.6 hPa SW 6.4 km/h 11.1 km/h 62% 0.0 mm CLR
11:09 9.1 °C 2.2 °C 1025.6 hPa SSW 7.6 km/h 9.3 km/h 62% 0.0 mm CLR
11:14 9.2 °C 2.3 °C 1025.6 hPa WSW 7.6 km/h 9.3 km/h 62% 0.0 mm CLR
11:19 9.3 °C 2.4 °C 1025.5 hPa SW 5.8 km/h 11.1 km/h 62% 0.0 mm CLR
11:24 9.3 °C 2.4 °C 1025.5 hPa SSW 5.8 km/h 11.1 km/h 62% 0.0 mm CLR
11:29 9.4 °C 2.5 °C 1025.5 hPa SW 7.6 km/h 7.6 km/h 62% 0.0 mm CLR
11:34 9.5 °C 2.3 °C 1025.4 hPa SSW 7.6 km/h 11.1 km/h 61% 0.0 mm CLR
11:39 9.6 °C 2.4 °C 1025.4 hPa WSW 6.4 km/h 13.0 km/h 61% 0.0 mm CLR
11:44 9.8 °C 2.6 °C 1025.4 hPa SW 6.4 km/h 7.4 km/h 61% 0.0 mm CLR
11:49 9.9 °C 2.5 °C 1025.5 hPa SSW 6.4 km/h 14.8 km/h 60% 0.0 mm CLR
11:54 10.0 °C 2.6 °C 1025.5 hPa South 6.4 km/h 14.8 km/h 60% 0.0 mm CLR
11:59 10.1 °C 2.7 °C 1025.5 hPa SSW 8.7 km/h 14.8 km/h 60% 0.0 mm CLR
12:04 10.2 °C 2.8 °C 1025.4 hPa South 8.7 km/h 13.0 km/h 60% 0.0 mm CLR
12:09 10.2 °C 2.8 °C 1025.4 hPa WSW 8.7 km/h 13.0 km/h 60% 0.0 mm CLR
12:14 10.3 °C 2.9 °C 1025.4 hPa SSW 8.7 km/h 13.7 km/h 60% 0.0 mm CLR
12:19 10.3 °C 2.9 °C 1025.3 hPa South 10.0 km/h 13.0 km/h 60% 0.0 mm CLR
12:24 10.4 °C 2.7 °C 1025.3 hPa SSW 10.0 km/h 14.8 km/h 59% 0.0 mm CLR
12:29 10.5 °C 2.8 °C 1025.3 hPa SSE 8.4 km/h 9.3 km/h 59% 0.0 mm CLR
12:34 10.7 °C 3.0 °C 1025.1 hPa SW 8.4 km/h 13.0 km/h 59% 0.0 mm CLR
12:39 10.8 °C 3.1 °C 1025.1 hPa SSW 7.6 km/h 11.1 km/h 59% 0.0 mm CLR
12:44 10.9 °C 2.9 °C 1025.1 hPa WSW 7.6 km/h 11.1 km/h 58% 0.0 mm CLR
12:49 11.1 °C 3.2 °C 1025.0 hPa South 7.6 km/h 16.7 km/h 58% 0.0 mm CLR
12:54 11.3 °C 3.1 °C 1025.0 hPa SE 7.6 km/h 13.0 km/h 57% 0.0 mm CLR
12:59 11.4 °C 3.2 °C 1025.0 hPa WSW 8.7 km/h 11.1 km/h 57% 0.0 mm CLR
13:04 11.4 °C 3.2 °C 1024.9 hPa SSW 8.7 km/h 11.1 km/h 57% 0.0 mm CLR
13:09 11.4 °C 3.4 °C 1024.9 hPa SSW 7.6 km/h 10.0 km/h 58% 0.0 mm CLR
13:14 11.6 °C 3.4 °C 1024.9 hPa SSW 7.6 km/h 11.1 km/h 57% 0.0 mm CLR
13:19 11.9 °C 3.7 °C 1024.6 hPa South 7.6 km/h 8.4 km/h 57% 0.0 mm CLR
13:24 12.3 °C 3.8 °C 1024.6 hPa SSE 7.6 km/h 7.6 km/h 56% 0.0 mm CLR
13:29 12.6 °C 4.3 °C 1024.6 hPa West 5.8 km/h 7.4 km/h 57% 0.0 mm CLR
13:35 12.7 °C 4.4 °C 1024.3 hPa SW 5.8 km/h 7.4 km/h 57% 0.0 mm CLR
13:39 12.9 °C 4.8 °C 1024.3 hPa NW 5.0 km/h 7.4 km/h 58% 0.0 mm CLR
13:44 13.1 °C 5.3 °C 1024.3 hPa NW 5.0 km/h   59% 0.0 mm CLR
13:49 13.4 °C 5.6 °C 1024.0 hPa NW 3.2 km/h 13.0 km/h 59% 0.0 mm CLR
13:54 13.6 °C 5.5 °C 1024.0 hPa NW 3.2 km/h 7.4 km/h 58% 0.0 mm CLR
13:59 13.7 °C 6.1 °C 1024.0 hPa NE 5.8 km/h 7.4 km/h 60% 0.0 mm CLR
14:04 13.8 °C 6.4 °C 1023.7 hPa ENE 5.8 km/h 7.4 km/h 61% 0.0 mm CLR
14:09 13.9 °C 6.7 °C 1023.7 hPa NE 6.4 km/h 5.6 km/h 62% 0.0 mm CLR
14:14 14.1 °C 6.7 °C 1023.7 hPa East 6.4 km/h 11.1 km/h 61% 0.0 mm CLR
14:19 14.2 °C 7.0 °C 1023.5 hPa NE 6.4 km/h 9.3 km/h 62% 0.0 mm CLR
14:24 14.3 °C 6.9 °C 1023.5 hPa ENE 6.4 km/h 9.3 km/h 61% 0.0 mm CLR
14:29 14.3 °C 7.1 °C 1023.5 hPa NW 5.8 km/h 11.1 km/h 62% 0.0 mm CLR
14:34 14.4 °C 7.2 °C 1023.1 hPa NE 5.8 km/h 11.1 km/h 62% 0.0 mm CLR
14:39 14.5 °C 7.3 °C 1023.1 hPa NW 7.6 km/h 7.4 km/h 62% 0.0 mm CLR
14:44 14.6 °C 7.2 °C 1023.1 hPa WNW 7.6 km/h 7.4 km/h 61% 0.0 mm CLR
14:49 14.7 °C 7.5 °C 1022.8 hPa ENE 5.0 km/h 7.6 km/h 62% 0.0 mm CLR
14:54 14.9 °C 7.7 °C 1022.8 hPa NNE 5.0 km/h 7.4 km/h 62% 0.0 mm CLR
14:59 15.1 °C 7.6 °C 1022.8 hPa SSW 5.8 km/h 6.9 km/h 61% 0.0 mm CLR
15:04 15.4 °C 8.4 °C 1022.6 hPa NE 5.8 km/h 20.4 km/h 63% 0.0 mm CLR
15:09 15.4 °C 8.4 °C 1022.6 hPa NE 7.6 km/h 16.1 km/h 63% 0.0 mm CLR
15:15 15.4 °C 8.6 °C 1022.6 hPa ENE 7.6 km/h 14.8 km/h 64% 0.0 mm CLR
15:19 15.3 °C 8.8 °C 1022.4 hPa NNE 11.9 km/h 16.7 km/h 65% 0.0 mm CLR
15:25 15.3 °C 8.5 °C 1022.4 hPa NE 11.3 km/h 19.3 km/h 64% 0.0 mm CLR
15:29 15.4 °C 8.8 °C 1022.4 hPa NNE 10.3 km/h 13.0 km/h 65% 0.0 mm CLR
15:34 15.5 °C 8.7 °C 1022.3 hPa East 10.3 km/h 11.1 km/h 64% 0.0 mm CLR
15:39 15.7 °C 8.7 °C 1022.3 hPa ESE 7.6 km/h 16.4 km/h 63% 0.0 mm CLR
15:44 15.8 °C 8.3 °C 1022.3 hPa ENE 7.6 km/h 22.2 km/h 61% 0.0 mm CLR
15:49 15.8 °C 8.6 °C 1022.2 hPa ESE 11.9 km/h 15.6 km/h 62% 0.0 mm CLR
15:54 15.9 °C 8.8 °C 1022.2 hPa East 11.9 km/h 13.0 km/h 63% 0.0 mm CLR
15:59 15.9 °C 8.8 °C 1022.2 hPa East 10.3 km/h 16.7 km/h 63% 0.0 mm CLR
16:04 15.9 °C 8.6 °C 1022.0 hPa NE 10.3 km/h 18.5 km/h 62% 0.0 mm CLR
16:09 15.8 °C 8.8 °C 1022.0 hPa East 10.3 km/h 24.1 km/h 63% 0.0 mm CLR
16:14 15.7 °C 8.7 °C 1022.0 hPa ENE 10.3 km/h 18.5 km/h 63% 0.0 mm CLR
16:20 15.5 °C 8.7 °C 1021.8 hPa NE 12.2 km/h 20.4 km/h 64% 0.0 mm CLR
16:24 15.5 °C 8.7 °C 1021.8 hPa East 12.2 km/h 16.7 km/h 64% 0.0 mm CLR
16:29 15.7 °C 8.9 °C 1021.8 hPa ENE 12.2 km/h 18.5 km/h 64% 0.0 mm CLR
16:34 15.7 °C 8.4 °C 1021.7 hPa ESE 12.2 km/h 14.0 km/h 62% 0.0 mm CLR
16:39 15.8 °C 8.8 °C 1021.7 hPa ENE 9.5 km/h 16.1 km/h 63% 0.0 mm CLR
16:44 15.8 °C 8.8 °C 1021.7 hPa NE 9.5 km/h 14.0 km/h 63% 0.0 mm CLR
16:49 15.7 °C 8.4 °C 1021.6 hPa NE 8.7 km/h 18.5 km/h 62% 0.0 mm CLR
16:54 15.7 °C 8.7 °C 1021.6 hPa ENE 8.7 km/h 14.8 km/h 63% 0.0 mm CLR
17:00 15.6 °C 8.6 °C 1021.6 hPa NE 11.3 km/h 19.3 km/h 63% 0.0 mm CLR
17:04 15.4 °C 8.6 °C 1021.6 hPa ENE 10.3 km/h 18.5 km/h 64% 0.0 mm CLR
17:09 15.4 °C 8.6 °C 1021.6 hPa ENE 12.2 km/h 18.5 km/h 64% 0.0 mm CLR
17:14 15.3 °C 8.5 °C 1021.6 hPa ENE 12.2 km/h 16.7 km/h 64% 0.0 mm CLR
17:19 15.3 °C 8.8 °C 1021.5 hPa NE 11.9 km/h 21.7 km/h 65% 0.0 mm CLR
17:24 15.1 °C 8.8 °C 1021.5 hPa NE 11.9 km/h 16.7 km/h 66% 0.0 mm CLR
17:29 15.1 °C 8.8 °C 1021.5 hPa East 11.9 km/h 14.8 km/h 66% 0.0 mm CLR
17:34 15.1 °C 8.6 °C 1021.5 hPa NNE 11.9 km/h 14.8 km/h 65% 0.0 mm CLR
17:39 15.1 °C 8.6 °C 1021.5 hPa NE 10.0 km/h 13.0 km/h 65% 0.0 mm CLR
17:44 15.0 °C 8.7 °C 1021.5 hPa ENE 10.0 km/h 18.5 km/h 66% 0.0 mm CLR
17:49 14.8 °C 8.5 °C 1021.4 hPa ENE 11.1 km/h 20.4 km/h 66% 0.0 mm CLR
17:54 14.7 °C 8.6 °C 1021.4 hPa NNE 11.1 km/h 18.5 km/h 67% 0.0 mm CLR
17:59 14.7 °C 8.6 °C 1021.4 hPa NE 11.1 km/h 14.8 km/h 67% 0.0 mm CLR
18:04 14.6 °C 8.6 °C 1021.5 hPa ENE 11.1 km/h 13.0 km/h 67% 0.0 mm CLR
18:09 14.6 °C 9.0 °C 1021.5 hPa NNE 8.7 km/h 14.8 km/h 69% 0.0 mm CLR
18:14 14.4 °C 8.8 °C 1021.5 hPa ENE 8.7 km/h 16.4 km/h 69% 0.0 mm CLR
18:19 14.3 °C 8.7 °C 1021.5 hPa NE 10.0 km/h 13.0 km/h 69% 0.0 mm CLR
18:24 14.2 °C 8.8 °C 1021.5 hPa NE 10.0 km/h 16.7 km/h 70% 0.0 mm CLR
18:29 14.1 °C 8.9 °C 1021.5 hPa NE 10.3 km/h 16.7 km/h 71% 0.0 mm CLR
18:34 13.9 °C 8.9 °C 1021.4 hPa NNE 10.3 km/h 18.5 km/h 72% 0.0 mm CLR
18:39 13.8 °C 8.8 °C 1021.4 hPa NE 10.3 km/h 18.5 km/h 72% 0.0 mm CLR
18:44 13.7 °C 8.9 °C 1021.4 hPa ENE 10.3 km/h 18.5 km/h 73% 0.0 mm CLR
18:49 13.6 °C 9.1 °C 1021.6 hPa NE 11.9 km/h 11.1 km/h 74% 0.0 mm CLR
18:55 13.4 °C 9.1 °C 1021.6 hPa NE 11.3 km/h 19.3 km/h 75% 0.0 mm CLR
18:59 13.3 °C 9.2 °C 1021.6 hPa NE 10.3 km/h 20.4 km/h 76% 0.0 mm CLR
19:04 13.2 °C 9.3 °C 1021.6 hPa NE 10.3 km/h 13.0 km/h 77% 0.0 mm CLR
19:09 13.1 °C 9.3 °C 1021.6 hPa NE 10.3 km/h 16.7 km/h 78% 0.0 mm CLR
19:15 12.9 °C 9.3 °C 1021.6 hPa NE 11.3 km/h 22.5 km/h 79% 0.0 mm CLR
19:19 12.8 °C 9.4 °C 1021.7 hPa NE 10.3 km/h 14.8 km/h 80% 0.0 mm CLR
19:24 12.7 °C 9.5 °C 1021.7 hPa NE 10.3 km/h 14.8 km/h 81% 0.0 mm CLR
19:30 12.6 °C 9.4 °C 1021.7 hPa ENE 9.5 km/h 13.0 km/h 81% 0.0 mm CLR
19:34 12.5 °C 9.5 °C 1021.8 hPa NE 9.5 km/h 14.8 km/h 82% 0.0 mm CLR
19:39 12.4 °C 9.4 °C 1021.8 hPa NE 8.4 km/h 11.1 km/h 82% 0.0 mm CLR
19:45 12.3 °C 9.5 °C 1021.8 hPa NE 8.0 km/h 9.7 km/h 83% 0.0 mm CLR
19:49 12.2 °C 9.4 °C 1022.0 hPa NNE 6.4 km/h 11.1 km/h 83% 0.0 mm CLR
19:55 12.2 °C 9.4 °C 1022.0 hPa NE 8.0 km/h 11.3 km/h 83% 0.0 mm CLR
19:59 12.1 °C 9.3 °C 1022.0 hPa NE 6.9 km/h 13.0 km/h 83% 0.0 mm CLR
20:04 12.1 °C 9.5 °C 1022.2 hPa NE 6.9 km/h 7.4 km/h 84% 0.0 mm CLR
20:09 12.1 °C 9.5 °C 1022.2 hPa NE 6.4 km/h 7.4 km/h 84% 0.0 mm CLR
20:15 12.0 °C 9.4 °C 1022.2 hPa NE 8.0 km/h 9.7 km/h 84% 0.0 mm CLR
20:19 11.9 °C 9.3 °C 1022.1 hPa NNE 5.8 km/h 7.4 km/h 84% 0.0 mm CLR
20:25 11.9 °C 9.3 °C 1022.1 hPa NE 4.8 km/h 11.3 km/h 84% 0.0 mm CLR
20:29 11.8 °C 9.3 °C 1022.1 hPa NE 6.4 km/h 7.4 km/h 85% 0.0 mm CLR
20:34 11.8 °C 9.2 °C 1022.1 hPa NE 6.4 km/h 7.4 km/h 84% 0.0 mm CLR
20:39 11.7 °C 9.3 °C 1022.1 hPa NE 5.8 km/h 11.1 km/h 85% 0.0 mm CLR
20:45 11.7 °C 9.3 °C 1022.1 hPa NE 4.8 km/h 11.3 km/h 85% 0.0 mm CLR
20:49 11.7 °C 9.3 °C 1022.2 hPa NNE 6.9 km/h 7.4 km/h 85% 0.0 mm CLR
20:55 11.7 °C 9.4 °C 1022.2 hPa NE 6.9 km/h 9.3 km/h 86% 0.0 mm CLR
20:59 11.7 °C 9.4 °C 1022.2 hPa NE 4.7 km/h 7.4 km/h 86% 0.0 mm CLR
21:04 11.7 °C 9.4 °C 1022.3 hPa NE 4.7 km/h 7.4 km/h 86% 0.0 mm CLR
21:09 11.7 °C 9.4 °C 1022.3 hPa ENE 5.0 km/h 8.7 km/h 86% 0.0 mm CLR
21:14 11.7 °C 9.4 °C 1022.3 hPa NE 5.0 km/h 13.0 km/h 86% 0.0 mm CLR
21:19 11.8 °C 9.6 °C 1022.2 hPa ENE 6.4 km/h 11.1 km/h 86% 0.0 mm CLR
21:25 11.7 °C 9.4 °C 1022.2 hPa ENE 6.4 km/h 11.1 km/h 86% 0.0 mm CLR
21:29 11.7 °C 9.4 °C 1022.2 hPa ENE 6.9 km/h 9.3 km/h 86% 0.0 mm CLR
21:35 11.6 °C 9.5 °C 1022.3 hPa NE 8.0 km/h 11.3 km/h 87% 0.0 mm CLR
21:39 11.6 °C 9.5 °C 1022.3 hPa NE 6.9 km/h 7.4 km/h 87% 0.0 mm CLR
21:45 11.4 °C 9.3 °C 1022.3 hPa NE 6.9 km/h 7.4 km/h 87% 0.0 mm CLR
21:50 11.3 °C 9.2 °C 1022.3 hPa NE 4.7 km/h 5.6 km/h 87% 0.0 mm CLR
21:55 11.2 °C 9.1 °C 1022.3 hPa NE 3.2 km/h 4.8 km/h 87% 0.0 mm CLR
21:59 11.0 °C 8.9 °C 1022.3 hPa NE 3.2 km/h 4.7 km/h 87% 0.0 mm CLR
22:05 10.9 °C 9.0 °C 1022.4 hPa NE 3.2 km/h 5.6 km/h 88% 0.0 mm CLR
22:09 10.8 °C 8.9 °C 1022.4 hPa NE 3.2 km/h 3.7 km/h 88% 0.0 mm CLR
22:15 10.8 °C 8.9 °C 1022.4 hPa NE 3.2 km/h 3.2 km/h 88% 0.0 mm CLR
22:19 10.8 °C 9.1 °C 1022.5 hPa Calm   3.9 km/h 89% 0.0 mm CLR
22:24 10.8 °C 9.1 °C 1022.5 hPa Calm     89% 0.0 mm CLR
22:29 10.9 °C 9.2 °C 1022.5 hPa Calm   3.7 km/h 89% 0.0 mm CLR
22:35 10.9 °C 9.2 °C 1022.5 hPa Calm     89% 0.0 mm CLR
22:39 11.0 °C 9.3 °C 1022.5 hPa Calm     89% 0.0 mm CLR
22:44 11.1 °C 9.3 °C 1022.5 hPa Calm     89% 0.0 mm CLR
22:49 11.1 °C 9.3 °C 1022.5 hPa Calm     89% 0.0 mm CLR
22:54 11.1 °C 9.3 °C 1022.5 hPa Calm     89% 0.0 mm CLR
22:59 11.1 °C 9.3 °C 1022.5 hPa Calm   6.4 km/h 89% 0.0 mm CLR
23:04 11.1 °C 9.5 °C 1022.4 hPa Calm   6.4 km/h 90% 0.0 mm CLR
23:09 11.2 °C 9.6 °C 1022.4 hPa NE 3.9 km/h 5.6 km/h 90% 0.0 mm CLR
23:14 11.2 °C 9.4 °C 1022.4 hPa West 3.9 km/h 5.8 km/h 89% 0.0 mm CLR
23:19 10.9 °C 9.2 °C 1022.3 hPa West 3.2 km/h 7.4 km/h 89% 0.0 mm CLR
23:25 10.9 °C 9.2 °C 1022.3 hPa West 3.2 km/h 7.4 km/h 89% 0.0 mm CLR
23:29 10.8 °C 9.1 °C 1022.3 hPa West 5.0 km/h 3.7 km/h 89% 0.0 mm CLR
23:35 10.8 °C 9.2 °C 1022.3 hPa West 5.0 km/h 3.9 km/h 90% 0.0 mm CLR
23:39 10.8 °C 9.2 °C 1022.3 hPa West 2.9 km/h 5.6 km/h 90% 0.0 mm CLR
23:45 10.8 °C 9.3 °C 1022.3 hPa West 3.2 km/h 8.0 km/h 90% 0.0 mm CLR
23:49 10.9 °C 9.3 °C 1022.4 hPa West 5.0 km/h 7.4 km/h 90% 0.0 mm CLR
23:55 10.8 °C 9.1 °C 1022.4 hPa West 4.8 km/h 8.0 km/h 89% 0.0 mm CLR
23:59 10.9 °C 9.3 °C 1022.4 hPa West 4.7 km/h 4.7 km/h 90% 0.0 mm CLR
Murcia-Puente Tocinos, España
Compliments of Weather Underground - 2.75 mb

La estación de MeteoMurcia.com, publica sus datos en los siguientes proyectos:

Weather Underground PWS IMURCIAP2 Meteoclimatic www.awekas.at

W3Counter
Web Analytics